createdAt,value
2023-04-23T00:01:28.157Z,99431.81
2023-04-23T00:06:32.225Z,99422.44
2023-04-23T00:11:36.180Z,99390.00
2023-04-23T00:16:39.533Z,99421.09
2023-04-23T00:21:41.177Z,99425.13
2023-04-23T00:26:42.524Z,99425.47
2023-04-23T00:31:46.794Z,99418.78
2023-04-23T00:36:48.137Z,99421.78
2023-04-23T00:41:49.692Z,99421.63
2023-04-23T00:46:52.224Z,99431.81
2023-04-23T00:51:53.637Z,99426.47
2023-04-23T00:56:58.212Z,99429.16
2023-04-23T01:02:00.454Z,99417.25
2023-04-23T01:07:03.062Z,99431.50
2023-04-23T01:12:06.635Z,99421.81
2023-04-23T01:17:09.013Z,99421.47
2023-04-23T01:22:13.070Z,99425.13
2023-04-23T01:27:14.752Z,99427.50
2023-04-23T01:32:17.049Z,99434.50
2023-04-23T01:37:19.079Z,99432.16
2023-04-23T01:42:20.679Z,99435.50
2023-04-23T01:47:22.259Z,99434.31
2023-04-23T01:52:23.697Z,99436.84
2023-04-23T01:57:26.677Z,99442.84
2023-04-23T02:02:28.392Z,99454.72
2023-04-23T02:07:31.380Z,99442.53
2023-04-23T02:12:33.211Z,99450.19
2023-04-23T02:17:35.406Z,99460.69
2023-04-23T02:22:41.770Z,99461.88
2023-04-23T02:27:43.278Z,99456.53
2023-04-23T02:32:44.824Z,99469.41
2023-04-23T02:37:46.578Z,99453.81
2023-04-23T02:42:49.326Z,99432.25
2023-04-23T02:47:51.961Z,99460.50
2023-04-23T02:52:53.595Z,99459.69
2023-04-23T02:57:55.189Z,99455.31
2023-04-23T03:02:56.973Z,99464.06
2023-04-23T03:07:59.181Z,99448.28
2023-04-23T03:13:00.899Z,99471.22
2023-04-23T03:18:04.707Z,99477.91
2023-04-23T03:23:09.316Z,99465.19
2023-04-23T03:28:11.124Z,99464.19
2023-04-23T03:33:12.525Z,99475.91
2023-04-23T03:38:14.185Z,99480.59
2023-04-23T03:43:17.150Z,99471.38
2023-04-23T03:48:18.597Z,99462.97
2023-04-23T03:53:20.386Z,99480.22
2023-04-23T03:58:21.889Z,99474.16
2023-04-23T04:03:23.406Z,99471.81
2023-04-23T04:08:26.563Z,99476.66
2023-04-23T04:13:28.471Z,99465.59
2023-04-23T04:18:30.740Z,99476.81
2023-04-23T04:23:33.750Z,99473.44
2023-04-23T04:28:37.262Z,99469.78
2023-04-23T04:33:39.791Z,99471.47
2023-04-23T04:38:41.733Z,99471.47
2023-04-23T04:43:45.205Z,99464.44
2023-04-23T04:48:47.552Z,99474.31
2023-04-23T04:53:49.137Z,99473.44
2023-04-23T04:58:52.523Z,99483.81
2023-04-23T05:03:54.211Z,99485.13
2023-04-23T05:08:56.036Z,99479.06
2023-04-23T05:13:57.468Z,99484.06
2023-04-23T05:18:58.956Z,99485.72
2023-04-23T05:24:01.409Z,99488.66
2023-04-23T05:29:02.847Z,99487.16
2023-04-23T05:34:04.282Z,99496.84
2023-04-23T05:39:05.784Z,99490.47
2023-04-23T05:44:07.517Z,99494.19
2023-04-23T05:49:09.836Z,99506.88
2023-04-23T05:54:11.471Z,99502.84
2023-04-23T05:59:12.808Z,99503.22
2023-04-23T06:04:15.684Z,99507.28
2023-04-23T06:09:18.651Z,99511.66
2023-04-23T06:14:20.844Z,99514.00
2023-04-23T06:19:25.029Z,99487.44
2023-04-23T06:24:26.650Z,99505.88
2023-04-23T06:29:28.865Z,99511.59
2023-04-23T06:34:30.564Z,99492.38
2023-04-23T06:39:31.949Z,99496.41
2023-04-23T06:44:34.397Z,99492.91
2023-04-23T06:49:36.081Z,99501.47
2023-04-23T06:54:37.487Z,99503.47
2023-04-23T06:59:39.177Z,99514.50
2023-04-23T07:04:41.771Z,99498.47
2023-04-23T07:09:43.874Z,99496.09
2023-04-23T07:14:46.509Z,99480.69
2023-04-23T07:19:48.031Z,99491.41
2023-04-23T07:24:49.855Z,99477.66
2023-04-23T07:29:51.446Z,99472.97
2023-04-23T07:34:52.875Z,99461.88
2023-04-23T07:39:54.234Z,99496.19
2023-04-23T07:44:55.915Z,99478.22
2023-04-23T07:49:57.761Z,99476.81
2023-04-23T07:54:59.187Z,99487.56
2023-04-23T08:00:00.953Z,99472.00
2023-04-23T08:05:02.442Z,99477.66
2023-04-23T08:10:06.156Z,99479.75
2023-04-23T08:15:08.331Z,99457.91
2023-04-23T08:20:10.478Z,99465.38
2023-04-23T08:25:13.256Z,99464.66
2023-04-23T08:30:14.876Z,99459.25
2023-04-23T08:35:16.384Z,99457.56
2023-04-23T08:40:17.836Z,99446.91
2023-04-23T08:45:19.945Z,99451.09
2023-04-23T08:50:21.387Z,99447.47
2023-04-23T08:55:23.818Z,99450.81
2023-04-23T09:00:26.047Z,99433.44
2023-04-23T09:05:28.458Z,99445.75
2023-04-23T09:10:29.853Z,99445.28
2023-04-23T09:15:31.583Z,99435.75
2023-04-23T09:20:33.197Z,99417.94
2023-04-23T09:25:34.596Z,99419.13
2023-04-23T09:30:43.507Z,99418.94
2023-04-23T09:35:48.783Z,99411.22
2023-04-23T09:40:50.852Z,99397.56
2023-04-23T09:45:53.404Z,99382.31
2023-04-23T09:50:55.715Z,99388.31
2023-04-23T09:55:57.457Z,99385.47
2023-04-23T10:01:09.273Z,99375.72
2023-04-23T10:06:30.558Z,99374.06
2023-04-23T10:11:37.206Z,99382.81
2023-04-23T10:16:48.616Z,99376.78
2023-04-23T10:22:08.550Z,99368.13
2023-04-23T10:32:28.039Z,99363.84
2023-04-23T10:37:30.112Z,99361.06
2023-04-23T10:42:31.825Z,99360.94
2023-04-23T10:47:33.324Z,99356.78
2023-04-23T10:52:35.535Z,99354.38
2023-04-23T10:58:00.775Z,99350.00
2023-04-23T11:03:02.972Z,99352.72
2023-04-23T11:13:22.189Z,99329.78
2023-04-23T11:18:23.917Z,99302.00
2023-04-23T11:23:33.036Z,99303.47
2023-04-23T11:28:36.904Z,99306.06
2023-04-23T11:33:38.955Z,99295.38
2023-04-23T11:38:41.441Z,99288.75
2023-04-23T11:43:43.681Z,99282.06
2023-04-23T11:48:45.330Z,99268.38
2023-04-23T11:53:48.620Z,99267.50
2023-04-23T11:58:59.877Z,99264.78
2023-04-23T12:04:09.810Z,99264.53
2023-04-23T12:09:13.155Z,99266.06
2023-04-23T12:14:16.400Z,99244.66
2023-04-23T12:19:20.811Z,99251.13
2023-04-23T12:24:23.833Z,99218.72
2023-04-23T12:29:26.652Z,99229.66
2023-04-23T12:34:28.106Z,99235.91
2023-04-23T12:39:32.402Z,99236.13
2023-04-23T12:44:37.560Z,99214.59
2023-04-23T12:49:40.689Z,99207.38
2023-04-23T12:54:44.611Z,99197.13
2023-04-23T12:59:46.166Z,99184.28
2023-04-23T13:04:47.608Z,99166.13
2023-04-23T13:09:48.952Z,99161.63
2023-04-23T13:14:50.382Z,99143.75
2023-04-23T13:19:53.288Z,99134.13
2023-04-23T13:24:57.176Z,99138.56
2023-04-23T13:29:58.836Z,99125.41
2023-04-23T13:35:03.137Z,99110.19
2023-04-23T13:40:05.912Z,99103.78
2023-04-23T13:45:08.128Z,99067.91
2023-04-23T13:50:10.316Z,99088.38
2023-04-23T13:55:11.792Z,99087.41
2023-04-23T14:00:14.216Z,99069.44
2023-04-23T14:05:15.703Z,99066.78
2023-04-23T14:10:18.077Z,99060.19
2023-04-23T14:15:20.120Z,99051.53
2023-04-23T14:20:21.651Z,99059.75
2023-04-23T14:25:34.357Z,99036.88
2023-04-23T14:30:35.970Z,99038.13
2023-04-23T14:35:43.501Z,98999.25
2023-04-23T14:40:45.122Z,98996.63
2023-04-23T14:45:47.127Z,98989.09
2023-04-23T14:50:48.618Z,98979.88
2023-04-23T14:55:49.954Z,98979.94
2023-04-23T15:00:51.362Z,98971.66
2023-04-23T15:05:53.015Z,98971.84
2023-04-23T15:10:54.464Z,98961.47
2023-04-23T15:16:00.100Z,98957.81
2023-04-23T15:21:04.781Z,98944.13
2023-04-23T15:26:06.276Z,98950.19
2023-04-23T15:31:08.210Z,98941.78
2023-04-23T15:36:10.535Z,98938.88
2023-04-23T15:41:12.926Z,98900.13
2023-04-23T15:46:14.675Z,98863.94
2023-04-23T15:51:16.430Z,98919.19
2023-04-23T15:56:17.884Z,98912.19
2023-04-23T16:01:20.041Z,98904.97
2023-04-23T16:06:21.726Z,98901.03
2023-04-23T16:11:25.215Z,98904.38
2023-04-23T16:16:26.925Z,98905.03
2023-04-23T16:21:28.743Z,98908.00
2023-04-23T16:26:30.269Z,98904.72
2023-04-23T16:31:32.158Z,98890.41
2023-04-23T16:36:33.831Z,98910.97
2023-04-23T16:41:35.310Z,98946.94
2023-04-23T16:46:37.392Z,98977.47
2023-04-23T16:51:39.002Z,98989.41
2023-04-23T16:56:42.219Z,99004.84
2023-04-23T17:01:43.770Z,98989.00
2023-04-23T17:06:45.877Z,98975.53
2023-04-23T17:11:47.393Z,98983.16
2023-04-23T17:16:51.479Z,98975.19
2023-04-23T17:21:52.974Z,98959.88
2023-04-23T17:26:54.444Z,98950.00
2023-04-23T17:31:56.255Z,98930.28
2023-04-23T17:36:57.677Z,98920.97
2023-04-23T17:41:59.236Z,98939.78
2023-04-23T17:47:01.950Z,98949.91
2023-04-23T17:52:03.493Z,98947.81
2023-04-23T17:57:06.666Z,98950.19
2023-04-23T18:02:08.684Z,98949.94
2023-04-23T18:07:10.878Z,98940.59
2023-04-23T18:12:12.354Z,98935.44
2023-04-23T18:17:17.629Z,98958.81
2023-04-23T18:22:19.415Z,98949.41
2023-04-23T18:27:20.794Z,98943.88
2023-04-23T18:32:31.566Z,98946.22
2023-04-23T18:37:53.005Z,98949.69
2023-04-23T18:42:54.747Z,98950.69
2023-04-23T18:48:03.282Z,98951.38
2023-04-23T18:53:05.440Z,98932.97
2023-04-23T18:58:08.172Z,98942.13
2023-04-23T19:03:23.703Z,98950.13
2023-04-23T19:08:30.913Z,98954.56
2023-04-23T19:13:32.576Z,98962.50
2023-04-23T19:18:34.015Z,98965.38
2023-04-23T19:23:36.766Z,98953.44
2023-04-23T19:28:40.025Z,98919.19
2023-04-23T19:33:45.355Z,98960.94
2023-04-23T19:38:46.702Z,98973.06
2023-04-23T19:43:48.183Z,98970.66
2023-04-23T19:48:49.575Z,98963.94
2023-04-23T19:53:51.279Z,98979.84
2023-04-23T19:58:52.892Z,98960.88
2023-04-23T20:03:55.516Z,98972.34
2023-04-23T20:09:15.943Z,98983.31
2023-04-23T20:14:17.984Z,98969.66
2023-04-23T20:19:19.457Z,98959.69
2023-04-23T20:24:23.608Z,98975.00
2023-04-23T20:29:25.127Z,98970.19
2023-04-23T20:34:27.322Z,98967.16
2023-04-23T20:39:29.476Z,98963.97
2023-04-23T20:44:31.906Z,98946.31
2023-04-23T20:49:33.559Z,98956.50
2023-04-23T20:54:36.602Z,98964.44
2023-04-23T20:59:38.202Z,98973.28
2023-04-23T21:04:40.127Z,98979.91
2023-04-23T21:09:42.057Z,98977.22
2023-04-23T21:14:43.934Z,98980.31
2023-04-23T21:19:45.938Z,98983.66
2023-04-23T21:24:47.555Z,98975.69
2023-04-23T21:29:51.069Z,98988.41
2023-04-23T21:34:52.573Z,98993.78
2023-04-23T21:39:54.097Z,98987.69
2023-04-23T21:44:55.449Z,98984.38
2023-04-23T21:49:57.629Z,98986.75
2023-04-23T21:54:59.057Z,98998.31
2023-04-23T22:00:00.632Z,98999.72
2023-04-23T22:05:02.021Z,98995.22
2023-04-23T22:10:03.907Z,98986.16
2023-04-23T22:15:06.937Z,98973.81
2023-04-23T22:20:10.553Z,98990.22
2023-04-23T22:25:13.012Z,98994.72
2023-04-23T22:30:15.873Z,98993.53
2023-04-23T22:35:17.321Z,98976.50
2023-04-23T22:40:19.171Z,98972.25
2023-04-23T22:45:20.719Z,98966.59
2023-04-23T22:50:23.302Z,98968.31
2023-04-23T22:55:24.734Z,98973.91
2023-04-23T23:00:26.439Z,98971.97
2023-04-23T23:05:27.872Z,98984.72
2023-04-23T23:10:29.744Z,98974.06
2023-04-23T23:15:31.358Z,98967.69
2023-04-23T23:20:32.837Z,98970.75
2023-04-23T23:25:38.177Z,98953.09
2023-04-23T23:30:39.685Z,98963.63
2023-04-23T23:35:42.631Z,98963.75
2023-04-23T23:40:45.127Z,98943.91
2023-04-23T23:45:46.608Z,98958.16
2023-04-23T23:50:48.060Z,98951.63
2023-04-23T23:55:49.897Z,98952.44
